sensor_id;sensor_type;location;lat;lon;timestamp;P1;durP1;ratioP1;P2;durP2;ratioP2
52057;SDS011;38063;53.210;6.504;2023-07-02T00:01:41;20.20;;;6.00;;
52057;SDS011;38063;53.210;6.504;2023-07-02T00:04:07;16.63;;;6.28;;
52057;SDS011;38063;53.210;6.504;2023-07-02T00:06:38;19.63;;;5.30;;
52057;SDS011;38063;53.210;6.504;2023-07-02T00:09:05;18.13;;;5.70;;
52057;SDS011;38063;53.210;6.504;2023-07-02T00:11:32;20.30;;;5.30;;
52057;SDS011;38063;53.210;6.504;2023-07-02T00:13:58;13.48;;;6.40;;
52057;SDS011;38063;53.210;6.504;2023-07-02T00:16:23;20.33;;;6.60;;
52057;SDS011;38063;53.210;6.504;2023-07-02T00:18:49;14.80;;;5.72;;
52057;SDS011;38063;53.210;6.504;2023-07-02T00:21:18;15.93;;;6.28;;
52057;SDS011;38063;53.210;6.504;2023-07-02T00:23:45;19.00;;;5.47;;
52057;SDS011;38063;53.210;6.504;2023-07-02T00:26:11;18.80;;;6.13;;
52057;SDS011;38063;53.210;6.504;2023-07-02T00:28:37;18.48;;;6.25;;
52057;SDS011;38063;53.210;6.504;2023-07-02T00:31:02;17.60;;;6.80;;
52057;SDS011;38063;53.210;6.504;2023-07-02T00:33:28;24.75;;;6.32;;
52057;SDS011;38063;53.210;6.504;2023-07-02T00:35:54;18.50;;;6.40;;
52057;SDS011;38063;53.210;6.504;2023-07-02T00:38:21;23.63;;;6.75;;
52057;SDS011;38063;53.210;6.504;2023-07-02T00:40:47;18.13;;;6.38;;
52057;SDS011;38063;53.210;6.504;2023-07-02T00:43:13;16.52;;;6.53;;
52057;SDS011;38063;53.210;6.504;2023-07-02T00:45:39;24.20;;;7.15;;
52057;SDS011;38063;53.210;6.504;2023-07-02T00:48:05;18.23;;;6.80;;
52057;SDS011;38063;53.210;6.504;2023-07-02T00:50:31;19.55;;;6.03;;
52057;SDS011;38063;53.210;6.504;2023-07-02T00:52:57;22.20;;;6.00;;
52057;SDS011;38063;53.210;6.504;2023-07-02T00:55:23;22.15;;;7.47;;
52057;SDS011;38063;53.210;6.504;2023-07-02T00:57:49;21.63;;;7.60;;
52057;SDS011;38063;53.210;6.504;2023-07-02T01:00:15;19.85;;;7.13;;
52057;SDS011;38063;53.210;6.504;2023-07-02T01:02:53;20.95;;;7.35;;
52057;SDS011;38063;53.210;6.504;2023-07-02T01:05:24;22.65;;;7.00;;
52057;SDS011;38063;53.210;6.504;2023-07-02T01:07:51;23.70;;;6.75;;
52057;SDS011;38063;53.210;6.504;2023-07-02T01:10:17;21.90;;;6.70;;
52057;SDS011;38063;53.210;6.504;2023-07-02T01:12:42;17.98;;;6.20;;
52057;SDS011;38063;53.210;6.504;2023-07-02T01:15:10;26.70;;;7.57;;
52057;SDS011;38063;53.210;6.504;2023-07-02T01:17:36;23.08;;;7.30;;
52057;SDS011;38063;53.210;6.504;2023-07-02T01:20:08;23.35;;;8.02;;
52057;SDS011;38063;53.210;6.504;2023-07-02T01:22:35;17.98;;;6.95;;
52057;SDS011;38063;53.210;6.504;2023-07-02T01:25:01;24.80;;;7.57;;
52057;SDS011;38063;53.210;6.504;2023-07-02T01:27:28;28.58;;;7.13;;
52057;SDS011;38063;53.210;6.504;2023-07-02T01:29:55;19.92;;;6.93;;
52057;SDS011;38063;53.210;6.504;2023-07-02T01:32:21;23.27;;;7.15;;
52057;SDS011;38063;53.210;6.504;2023-07-02T01:34:48;23.20;;;7.00;;
52057;SDS011;38063;53.210;6.504;2023-07-02T01:37:14;21.85;;;7.57;;
52057;SDS011;38063;53.210;6.504;2023-07-02T01:39:42;28.55;;;7.28;;
52057;SDS011;38063;53.210;6.504;2023-07-02T01:42:12;21.23;;;7.57;;
52057;SDS011;38063;53.210;6.504;2023-07-02T01:44:39;27.33;;;7.90;;
52057;SDS011;38063;53.210;6.504;2023-07-02T01:47:05;20.70;;;7.20;;
52057;SDS011;38063;53.210;6.504;2023-07-02T01:49:31;33.03;;;7.97;;
52057;SDS011;38063;53.210;6.504;2023-07-02T01:51:57;21.90;;;7.20;;
52057;SDS011;38063;53.210;6.504;2023-07-02T01:54:24;23.40;;;7.55;;
52057;SDS011;38063;53.210;6.504;2023-07-02T01:56:52;27.25;;;7.63;;
52057;SDS011;38063;53.210;6.504;2023-07-02T01:59:18;26.15;;;7.35;;
52057;SDS011;38063;53.210;6.504;2023-07-02T02:01:44;25.83;;;7.68;;
52057;SDS011;38063;53.210;6.504;2023-07-02T02:04:10;26.30;;;7.63;;
52057;SDS011;38063;53.210;6.504;2023-07-02T02:06:36;20.25;;;7.32;;
52057;SDS011;38063;53.210;6.504;2023-07-02T02:09:03;29.98;;;8.05;;
52057;SDS011;38063;53.210;6.504;2023-07-02T02:11:29;20.40;;;7.00;;
52057;SDS011;38063;53.210;6.504;2023-07-02T02:13:55;26.25;;;6.65;;
52057;SDS011;38063;53.210;6.504;2023-07-02T02:16:22;26.25;;;8.02;;
52057;SDS011;38063;53.210;6.504;2023-07-02T02:18:48;29.65;;;7.82;;
52057;SDS011;38063;53.210;6.504;2023-07-02T02:21:17;26.00;;;7.72;;
52057;SDS011;38063;53.210;6.504;2023-07-02T02:23:46;25.10;;;7.07;;
52057;SDS011;38063;53.210;6.504;2023-07-02T02:26:12;20.92;;;6.80;;
52057;SDS011;38063;53.210;6.504;2023-07-02T02:28:39;22.02;;;7.88;;
52057;SDS011;38063;53.210;6.504;2023-07-02T02:31:04;22.42;;;9.02;;
52057;SDS011;38063;53.210;6.504;2023-07-02T02:33:30;24.90;;;8.15;;
52057;SDS011;38063;53.210;6.504;2023-07-02T02:35:57;21.05;;;7.63;;
52057;SDS011;38063;53.210;6.504;2023-07-02T02:38:22;28.70;;;7.88;;
52057;SDS011;38063;53.210;6.504;2023-07-02T02:40:48;28.77;;;8.23;;
52057;SDS011;38063;53.210;6.504;2023-07-02T02:43:14;21.17;;;7.35;;
52057;SDS011;38063;53.210;6.504;2023-07-02T02:45:42;25.65;;;9.02;;
52057;SDS011;38063;53.210;6.504;2023-07-02T02:48:08;20.63;;;7.70;;
52057;SDS011;38063;53.210;6.504;2023-07-02T02:50:34;27.88;;;8.20;;
52057;SDS011;38063;53.210;6.504;2023-07-02T02:52:59;24.20;;;7.65;;
52057;SDS011;38063;53.210;6.504;2023-07-02T02:55:25;20.40;;;7.18;;
52057;SDS011;38063;53.210;6.504;2023-07-02T02:57:51;26.85;;;8.15;;
52057;SDS011;38063;53.210;6.504;2023-07-02T03:00:17;23.73;;;8.02;;
52057;SDS011;38063;53.210;6.504;2023-07-02T03:02:42;27.98;;;7.80;;
52057;SDS011;38063;53.210;6.504;2023-07-02T03:05:08;19.90;;;6.68;;
52057;SDS011;38063;53.210;6.504;2023-07-02T03:07:34;22.20;;;8.00;;
52057;SDS011;38063;53.210;6.504;2023-07-02T03:10:00;21.02;;;7.88;;
52057;SDS011;38063;53.210;6.504;2023-07-02T03:12:26;29.48;;;7.65;;
52057;SDS011;38063;53.210;6.504;2023-07-02T03:14:52;27.17;;;7.85;;
52057;SDS011;38063;53.210;6.504;2023-07-02T03:17:20;23.25;;;7.03;;
52057;SDS011;38063;53.210;6.504;2023-07-02T03:19:46;20.38;;;7.82;;
52057;SDS011;38063;53.210;6.504;2023-07-02T03:22:12;25.35;;;7.47;;
52057;SDS011;38063;53.210;6.504;2023-07-02T03:24:38;18.50;;;6.75;;
52057;SDS011;38063;53.210;6.504;2023-07-02T03:27:04;19.95;;;7.38;;
52057;SDS011;38063;53.210;6.504;2023-07-02T03:29:30;24.77;;;7.90;;
52057;SDS011;38063;53.210;6.504;2023-07-02T03:31:56;21.42;;;7.07;;
52057;SDS011;38063;53.210;6.504;2023-07-02T03:34:22;20.40;;;7.50;;
52057;SDS011;38063;53.210;6.504;2023-07-02T03:36:49;26.13;;;7.15;;
52057;SDS011;38063;53.210;6.504;2023-07-02T03:39:15;25.25;;;8.10;;
52057;SDS011;38063;53.210;6.504;2023-07-02T03:41:41;28.08;;;7.85;;
52057;SDS011;38063;53.210;6.504;2023-07-02T03:44:07;26.30;;;7.85;;
52057;SDS011;38063;53.210;6.504;2023-07-02T03:46:32;26.90;;;7.15;;
52057;SDS011;38063;53.210;6.504;2023-07-02T03:48:58;25.23;;;7.68;;
52057;SDS011;38063;53.210;6.504;2023-07-02T03:51:24;24.73;;;7.95;;
52057;SDS011;38063;53.210;6.504;2023-07-02T03:53:50;19.60;;;8.77;;
52057;SDS011;38063;53.210;6.504;2023-07-02T03:56:15;21.80;;;7.00;;
52057;SDS011;38063;53.210;6.504;2023-07-02T03:58:41;23.27;;;7.25;;
52057;SDS011;38063;53.210;6.504;2023-07-02T04:01:06;23.58;;;7.32;;
52057;SDS011;38063;53.210;6.504;2023-07-02T04:03:32;20.35;;;7.25;;
52057;SDS011;38063;53.210;6.504;2023-07-02T04:05:58;18.90;;;7.25;;
52057;SDS011;38063;53.210;6.504;2023-07-02T04:08:23;26.23;;;7.55;;
52057;SDS011;38063;53.210;6.504;2023-07-02T04:10:53;21.70;;;7.05;;
52057;SDS011;38063;53.210;6.504;2023-07-02T04:13:19;25.10;;;6.70;;
52057;SDS011;38063;53.210;6.504;2023-07-02T04:15:45;20.95;;;7.25;;
52057;SDS011;38063;53.210;6.504;2023-07-02T04:18:11;20.55;;;6.78;;
52057;SDS011;38063;53.210;6.504;2023-07-02T04:20:36;19.98;;;7.65;;
52057;SDS011;38063;53.210;6.504;2023-07-02T04:23:05;21.83;;;7.07;;
52057;SDS011;38063;53.210;6.504;2023-07-02T04:25:31;25.67;;;7.53;;
52057;SDS011;38063;53.210;6.504;2023-07-02T04:27:57;22.58;;;7.38;;
52057;SDS011;38063;53.210;6.504;2023-07-02T04:30:24;18.65;;;7.00;;
52057;SDS011;38063;53.210;6.504;2023-07-02T04:32:50;24.73;;;7.38;;
52057;SDS011;38063;53.210;6.504;2023-07-02T04:35:17;22.35;;;6.72;;
52057;SDS011;38063;53.210;6.504;2023-07-02T04:37:43;24.35;;;7.30;;
52057;SDS011;38063;53.210;6.504;2023-07-02T04:40:09;20.63;;;7.15;;
52057;SDS011;38063;53.210;6.504;2023-07-02T04:42:38;23.13;;;6.97;;
52057;SDS011;38063;53.210;6.504;2023-07-02T04:45:12;22.33;;;6.88;;
52057;SDS011;38063;53.210;6.504;2023-07-02T04:47:40;18.08;;;5.90;;
52057;SDS011;38063;53.210;6.504;2023-07-02T04:50:07;27.52;;;6.38;;
52057;SDS011;38063;53.210;6.504;2023-07-02T04:52:33;20.02;;;6.93;;
52057;SDS011;38063;53.210;6.504;2023-07-02T04:54:59;23.30;;;6.78;;
52057;SDS011;38063;53.210;6.504;2023-07-02T04:57:24;18.23;;;6.63;;
52057;SDS011;38063;53.210;6.504;2023-07-02T04:59:50;17.15;;;6.03;;
52057;SDS011;38063;53.210;6.504;2023-07-02T05:02:15;20.98;;;5.53;;
52057;SDS011;38063;53.210;6.504;2023-07-02T05:04:41;22.50;;;6.30;;
52057;SDS011;38063;53.210;6.504;2023-07-02T05:07:07;15.65;;;4.97;;
52057;SDS011;38063;53.210;6.504;2023-07-02T05:09:32;13.93;;;5.93;;
52057;SDS011;38063;53.210;6.504;2023-07-02T05:11:58;13.02;;;5.35;;
52057;SDS011;38063;53.210;6.504;2023-07-02T05:14:24;23.42;;;5.07;;
52057;SDS011;38063;53.210;6.504;2023-07-02T05:16:49;19.35;;;5.63;;
52057;SDS011;38063;53.210;6.504;2023-07-02T05:19:15;17.30;;;5.32;;
52057;SDS011;38063;53.210;6.504;2023-07-02T05:21:41;15.50;;;5.22;;
52057;SDS011;38063;53.210;6.504;2023-07-02T05:24:07;16.25;;;5.28;;
52057;SDS011;38063;53.210;6.504;2023-07-02T05:26:33;17.80;;;5.13;;
52057;SDS011;38063;53.210;6.504;2023-07-02T05:28:59;13.57;;;4.63;;
52057;SDS011;38063;53.210;6.504;2023-07-02T05:31:25;15.45;;;4.85;;
52057;SDS011;38063;53.210;6.504;2023-07-02T05:33:50;14.98;;;5.15;;
52057;SDS011;38063;53.210;6.504;2023-07-02T05:36:16;15.27;;;5.13;;
52057;SDS011;38063;53.210;6.504;2023-07-02T05:38:42;14.80;;;5.13;;
52057;SDS011;38063;53.210;6.504;2023-07-02T05:41:07;10.45;;;4.50;;
52057;SDS011;38063;53.210;6.504;2023-07-02T05:43:33;16.52;;;4.43;;
52057;SDS011;38063;53.210;6.504;2023-07-02T05:45:59;18.13;;;5.75;;
52057;SDS011;38063;53.210;6.504;2023-07-02T05:48:27;17.77;;;5.25;;
52057;SDS011;38063;53.210;6.504;2023-07-02T05:50:53;16.50;;;4.88;;
52057;SDS011;38063;53.210;6.504;2023-07-02T05:53:20;14.10;;;5.10;;
52057;SDS011;38063;53.210;6.504;2023-07-02T05:55:45;15.13;;;4.32;;
52057;SDS011;38063;53.210;6.504;2023-07-02T05:58:12;19.48;;;4.82;;
52057;SDS011;38063;53.210;6.504;2023-07-02T06:00:37;18.05;;;5.28;;
52057;SDS011;38063;53.210;6.504;2023-07-02T06:03:04;15.27;;;5.47;;
52057;SDS011;38063;53.210;6.504;2023-07-02T06:05:30;18.80;;;6.15;;
52057;SDS011;38063;53.210;6.504;2023-07-02T06:07:55;13.35;;;4.90;;
52057;SDS011;38063;53.210;6.504;2023-07-02T06:10:21;15.45;;;4.93;;
52057;SDS011;38063;53.210;6.504;2023-07-02T06:12:47;11.32;;;4.53;;
52057;SDS011;38063;53.210;6.504;2023-07-02T06:15:12;15.32;;;5.40;;
52057;SDS011;38063;53.210;6.504;2023-07-02T06:17:38;12.18;;;5.43;;
52057;SDS011;38063;53.210;6.504;2023-07-02T06:20:04;17.63;;;4.93;;
52057;SDS011;38063;53.210;6.504;2023-07-02T06:22:30;14.02;;;4.78;;
52057;SDS011;38063;53.210;6.504;2023-07-02T06:24:56;17.80;;;5.60;;
52057;SDS011;38063;53.210;6.504;2023-07-02T06:27:22;16.88;;;4.50;;
52057;SDS011;38063;53.210;6.504;2023-07-02T06:29:47;15.43;;;5.20;;
52057;SDS011;38063;53.210;6.504;2023-07-02T06:32:13;13.82;;;5.00;;
52057;SDS011;38063;53.210;6.504;2023-07-02T06:34:39;15.18;;;4.97;;
52057;SDS011;38063;53.210;6.504;2023-07-02T06:37:04;15.25;;;4.95;;
52057;SDS011;38063;53.210;6.504;2023-07-02T06:39:30;14.70;;;4.93;;
52057;SDS011;38063;53.210;6.504;2023-07-02T06:41:56;15.98;;;4.22;;
52057;SDS011;38063;53.210;6.504;2023-07-02T06:44:22;17.70;;;3.70;;
52057;SDS011;38063;53.210;6.504;2023-07-02T06:46:47;10.20;;;3.10;;
52057;SDS011;38063;53.210;6.504;2023-07-02T06:49:13;13.95;;;3.33;;
52057;SDS011;38063;53.210;6.504;2023-07-02T06:51:39;11.82;;;3.08;;
52057;SDS011;38063;53.210;6.504;2023-07-02T06:54:05;14.73;;;2.92;;
52057;SDS011;38063;53.210;6.504;2023-07-02T06:56:31;14.77;;;3.47;;
52057;SDS011;38063;53.210;6.504;2023-07-02T06:58:58;9.27;;;3.00;;
52057;SDS011;38063;53.210;6.504;2023-07-02T07:01:24;18.15;;;3.72;;
52057;SDS011;38063;53.210;6.504;2023-07-02T07:03:49;10.93;;;3.45;;
52057;SDS011;38063;53.210;6.504;2023-07-02T07:06:15;11.63;;;3.33;;
52057;SDS011;38063;53.210;6.504;2023-07-02T07:08:41;9.38;;;2.72;;
52057;SDS011;38063;53.210;6.504;2023-07-02T07:11:06;8.32;;;2.53;;
52057;SDS011;38063;53.210;6.504;2023-07-02T07:13:32;14.20;;;3.05;;
52057;SDS011;38063;53.210;6.504;2023-07-02T07:15:57;9.68;;;2.65;;
52057;SDS011;38063;53.210;6.504;2023-07-02T07:18:23;8.65;;;2.30;;
52057;SDS011;38063;53.210;6.504;2023-07-02T07:20:49;12.90;;;3.20;;
52057;SDS011;38063;53.210;6.504;2023-07-02T07:23:15;14.45;;;2.83;;
52057;SDS011;38063;53.210;6.504;2023-07-02T07:25:42;9.98;;;2.65;;
52057;SDS011;38063;53.210;6.504;2023-07-02T07:28:08;13.60;;;3.20;;
52057;SDS011;38063;53.210;6.504;2023-07-02T07:30:39;12.52;;;2.78;;
52057;SDS011;38063;53.210;6.504;2023-07-02T07:33:05;10.52;;;2.92;;
52057;SDS011;38063;53.210;6.504;2023-07-02T07:35:30;11.15;;;3.60;;
52057;SDS011;38063;53.210;6.504;2023-07-02T07:37:56;12.00;;;3.00;;
52057;SDS011;38063;53.210;6.504;2023-07-02T07:40:22;10.68;;;3.25;;
52057;SDS011;38063;53.210;6.504;2023-07-02T07:42:47;7.60;;;2.72;;
52057;SDS011;38063;53.210;6.504;2023-07-02T07:45:13;10.48;;;2.42;;
52057;SDS011;38063;53.210;6.504;2023-07-02T07:47:39;10.95;;;2.40;;
52057;SDS011;38063;53.210;6.504;2023-07-02T07:50:04;15.73;;;3.00;;
52057;SDS011;38063;53.210;6.504;2023-07-02T07:52:36;10.43;;;2.53;;
52057;SDS011;38063;53.210;6.504;2023-07-02T07:55:05;9.82;;;2.22;;
52057;SDS011;38063;53.210;6.504;2023-07-02T07:57:32;8.90;;;2.50;;
52057;SDS011;38063;53.210;6.504;2023-07-02T07:59:59;9.18;;;2.80;;
52057;SDS011;38063;53.210;6.504;2023-07-02T08:02:24;5.43;;;2.65;;
52057;SDS011;38063;53.210;6.504;2023-07-02T08:04:50;9.05;;;2.78;;
52057;SDS011;38063;53.210;6.504;2023-07-02T08:07:16;6.13;;;2.50;;
52057;SDS011;38063;53.210;6.504;2023-07-02T08:09:42;10.55;;;3.10;;
52057;SDS011;38063;53.210;6.504;2023-07-02T08:12:07;9.65;;;2.55;;
52057;SDS011;38063;53.210;6.504;2023-07-02T08:14:34;9.27;;;2.95;;
52057;SDS011;38063;53.210;6.504;2023-07-02T08:17:02;11.93;;;2.92;;
52057;SDS011;38063;53.210;6.504;2023-07-02T08:19:28;11.10;;;3.13;;
52057;SDS011;38063;53.210;6.504;2023-07-02T08:21:54;8.85;;;2.90;;
52057;SDS011;38063;53.210;6.504;2023-07-02T08:24:20;8.65;;;2.97;;
52057;SDS011;38063;53.210;6.504;2023-07-02T08:26:45;10.30;;;3.30;;
52057;SDS011;38063;53.210;6.504;2023-07-02T08:29:12;10.98;;;3.10;;
52057;SDS011;38063;53.210;6.504;2023-07-02T08:31:38;11.70;;;3.13;;
52057;SDS011;38063;53.210;6.504;2023-07-02T08:34:05;13.63;;;3.85;;
52057;SDS011;38063;53.210;6.504;2023-07-02T08:36:30;11.60;;;3.83;;
52057;SDS011;38063;53.210;6.504;2023-07-02T08:38:56;12.85;;;3.28;;
52057;SDS011;38063;53.210;6.504;2023-07-02T08:41:22;8.77;;;3.67;;
52057;SDS011;38063;53.210;6.504;2023-07-02T08:43:49;11.13;;;3.67;;
52057;SDS011;38063;53.210;6.504;2023-07-02T08:46:15;14.68;;;3.38;;
52057;SDS011;38063;53.210;6.504;2023-07-02T08:48:41;10.10;;;3.08;;
52057;SDS011;38063;53.210;6.504;2023-07-02T08:51:07;9.27;;;3.10;;
52057;SDS011;38063;53.210;6.504;2023-07-02T08:53:33;10.23;;;2.70;;
52057;SDS011;38063;53.210;6.504;2023-07-02T08:55:59;9.05;;;3.22;;
52057;SDS011;38063;53.210;6.504;2023-07-02T08:58:26;8.43;;;2.80;;
52057;SDS011;38063;53.210;6.504;2023-07-02T09:01:04;9.80;;;2.90;;
52057;SDS011;38063;53.210;6.504;2023-07-02T09:03:31;8.48;;;2.88;;
52057;SDS011;38063;53.210;6.504;2023-07-02T09:05:57;10.95;;;3.15;;
52057;SDS011;38063;53.210;6.504;2023-07-02T09:08:24;8.85;;;2.80;;
52057;SDS011;38063;53.210;6.504;2023-07-02T09:10:50;7.13;;;2.30;;
52057;SDS011;38063;53.210;6.504;2023-07-02T09:13:16;10.32;;;2.85;;
52057;SDS011;38063;53.210;6.504;2023-07-02T09:15:42;7.93;;;3.40;;
52057;SDS011;38063;53.210;6.504;2023-07-02T09:18:14;8.40;;;2.30;;
52057;SDS011;38063;53.210;6.504;2023-07-02T09:20:44;7.20;;;2.35;;
52057;SDS011;38063;53.210;6.504;2023-07-02T09:23:10;9.95;;;2.38;;
52057;SDS011;38063;53.210;6.504;2023-07-02T09:25:37;8.00;;;2.75;;
52057;SDS011;38063;53.210;6.504;2023-07-02T09:28:13;8.50;;;2.47;;
52057;SDS011;38063;53.210;6.504;2023-07-02T09:30:53;9.25;;;2.60;;
52057;SDS011;38063;53.210;6.504;2023-07-02T09:33:19;8.05;;;2.47;;
52057;SDS011;38063;53.210;6.504;2023-07-02T09:35:46;9.57;;;2.38;;
52057;SDS011;38063;53.210;6.504;2023-07-02T09:38:12;5.75;;;2.08;;
52057;SDS011;38063;53.210;6.504;2023-07-02T09:40:44;9.27;;;2.03;;
52057;SDS011;38063;53.210;6.504;2023-07-02T09:43:13;7.03;;;2.10;;
52057;SDS011;38063;53.210;6.504;2023-07-02T09:45:43;7.30;;;2.60;;
52057;SDS011;38063;53.210;6.504;2023-07-02T09:48:14;10.23;;;2.38;;
52057;SDS011;38063;53.210;6.504;2023-07-02T09:50:44;8.95;;;2.20;;
52057;SDS011;38063;53.210;6.504;2023-07-02T09:53:12;7.57;;;2.20;;
52057;SDS011;38063;53.210;6.504;2023-07-02T09:55:38;6.85;;;2.22;;
52057;SDS011;38063;53.210;6.504;2023-07-02T09:58:05;8.00;;;2.08;;
52057;SDS011;38063;53.210;6.504;2023-07-02T10:00:31;9.95;;;2.70;;
52057;SDS011;38063;53.210;6.504;2023-07-02T10:02:57;7.63;;;2.33;;
52057;SDS011;38063;53.210;6.504;2023-07-02T10:05:29;7.60;;;2.20;;
52057;SDS011;38063;53.210;6.504;2023-07-02T10:07:56;8.23;;;2.28;;
52057;SDS011;38063;53.210;6.504;2023-07-02T10:10:40;11.55;;;2.47;;
52057;SDS011;38063;53.210;6.504;2023-07-02T10:13:06;10.18;;;2.42;;
52057;SDS011;38063;53.210;6.504;2023-07-02T10:15:32;6.47;;;2.25;;
52057;SDS011;38063;53.210;6.504;2023-07-02T10:18:02;8.93;;;2.58;;
52057;SDS011;38063;53.210;6.504;2023-07-02T10:20:38;7.55;;;2.35;;
52057;SDS011;38063;53.210;6.504;2023-07-02T10:23:05;10.68;;;1.70;;
52057;SDS011;38063;53.210;6.504;2023-07-02T10:25:32;6.40;;;1.80;;
52057;SDS011;38063;53.210;6.504;2023-07-02T10:28:00;9.25;;;2.13;;
52057;SDS011;38063;53.210;6.504;2023-07-02T10:30:33;6.85;;;2.55;;
52057;SDS011;38063;53.210;6.504;2023-07-02T10:33:21;10.05;;;2.90;;
52057;SDS011;38063;53.210;6.504;2023-07-02T10:35:49;6.37;;;2.80;;
52057;SDS011;38063;53.210;6.504;2023-07-02T10:38:17;12.35;;;2.92;;
52057;SDS011;38063;53.210;6.504;2023-07-02T10:40:44;8.82;;;2.72;;
52057;SDS011;38063;53.210;6.504;2023-07-02T10:43:10;11.30;;;3.00;;
52057;SDS011;38063;53.210;6.504;2023-07-02T10:45:36;7.53;;;2.75;;
52057;SDS011;38063;53.210;6.504;2023-07-02T10:48:02;12.15;;;3.22;;
52057;SDS011;38063;53.210;6.504;2023-07-02T10:50:30;8.02;;;2.40;;
52057;SDS011;38063;53.210;6.504;2023-07-02T10:52:57;7.22;;;2.67;;
52057;SDS011;38063;53.210;6.504;2023-07-02T10:55:23;7.50;;;2.20;;
52057;SDS011;38063;53.210;6.504;2023-07-02T10:57:50;8.40;;;2.50;;
52057;SDS011;38063;53.210;6.504;2023-07-02T11:00:29;8.95;;;2.10;;
52057;SDS011;38063;53.210;6.504;2023-07-02T11:02:55;10.10;;;2.63;;
52057;SDS011;38063;53.210;6.504;2023-07-02T11:05:21;6.72;;;2.40;;
52057;SDS011;38063;53.210;6.504;2023-07-02T11:07:46;8.23;;;2.50;;
52057;SDS011;38063;53.210;6.504;2023-07-02T11:10:18;6.57;;;2.75;;
52057;SDS011;38063;53.210;6.504;2023-07-02T11:12:44;9.70;;;2.50;;
52057;SDS011;38063;53.210;6.504;2023-07-02T11:15:14;8.70;;;2.78;;
52057;SDS011;38063;53.210;6.504;2023-07-02T11:17:42;8.05;;;3.08;;
52057;SDS011;38063;53.210;6.504;2023-07-02T11:20:09;6.93;;;2.38;;
52057;SDS011;38063;53.210;6.504;2023-07-02T11:22:36;9.68;;;3.15;;
52057;SDS011;38063;53.210;6.504;2023-07-02T11:25:12;8.90;;;2.70;;
52057;SDS011;38063;53.210;6.504;2023-07-02T11:27:40;8.48;;;2.17;;
52057;SDS011;38063;53.210;6.504;2023-07-02T11:30:06;7.63;;;1.98;;
52057;SDS011;38063;53.210;6.504;2023-07-02T11:32:35;6.60;;;2.38;;
52057;SDS011;38063;53.210;6.504;2023-07-02T11:35:14;9.50;;;2.47;;
52057;SDS011;38063;53.210;6.504;2023-07-02T11:37:41;4.68;;;1.70;;
52057;SDS011;38063;53.210;6.504;2023-07-02T11:40:07;13.13;;;2.28;;
52057;SDS011;38063;53.210;6.504;2023-07-02T11:42:33;5.75;;;2.05;;
52057;SDS011;38063;53.210;6.504;2023-07-02T11:44:59;8.40;;;2.08;;
52057;SDS011;38063;53.210;6.504;2023-07-02T11:47:24;6.63;;;2.63;;
52057;SDS011;38063;53.210;6.504;2023-07-02T11:49:52;8.60;;;2.35;;
52057;SDS011;38063;53.210;6.504;2023-07-02T11:52:20;8.90;;;2.30;;
52057;SDS011;38063;53.210;6.504;2023-07-02T11:54:46;8.52;;;2.33;;
52057;SDS011;38063;53.210;6.504;2023-07-02T11:57:12;9.32;;;2.25;;
52057;SDS011;38063;53.210;6.504;2023-07-02T11:59:37;8.18;;;2.67;;
52057;SDS011;38063;53.210;6.504;2023-07-02T12:02:03;8.73;;;2.33;;
52057;SDS011;38063;53.210;6.504;2023-07-02T12:04:29;5.35;;;2.17;;
52057;SDS011;38063;53.210;6.504;2023-07-02T12:06:55;10.25;;;2.20;;
52057;SDS011;38063;53.210;6.504;2023-07-02T12:09:21;7.85;;;2.15;;
52057;SDS011;38063;53.210;6.504;2023-07-02T12:11:46;7.75;;;2.40;;
52057;SDS011;38063;53.210;6.504;2023-07-02T12:14:12;7.63;;;2.08;;
52057;SDS011;38063;53.210;6.504;2023-07-02T12:19:10;7.35;;;2.92;;
52057;SDS011;38063;53.210;6.504;2023-07-02T12:21:36;6.72;;;2.08;;
52057;SDS011;38063;53.210;6.504;2023-07-02T12:24:02;10.77;;;2.70;;
52057;SDS011;38063;53.210;6.504;2023-07-02T12:26:28;8.45;;;2.33;;
52057;SDS011;38063;53.210;6.504;2023-07-02T12:28:54;6.68;;;2.42;;
52057;SDS011;38063;53.210;6.504;2023-07-02T12:31:23;6.68;;;2.47;;
52057;SDS011;38063;53.210;6.504;2023-07-02T12:33:48;5.43;;;2.20;;
52057;SDS011;38063;53.210;6.504;2023-07-02T12:36:14;6.88;;;2.90;;
52057;SDS011;38063;53.210;6.504;2023-07-02T12:38:39;8.23;;;2.55;;
52057;SDS011;38063;53.210;6.504;2023-07-02T12:41:05;7.05;;;2.45;;
52057;SDS011;38063;53.210;6.504;2023-07-02T12:43:31;5.93;;;2.40;;
52057;SDS011;38063;53.210;6.504;2023-07-02T12:45:56;7.72;;;2.67;;
52057;SDS011;38063;53.210;6.504;2023-07-02T12:48:22;6.93;;;2.13;;
52057;SDS011;38063;53.210;6.504;2023-07-02T12:50:57;10.00;;;2.35;;
52057;SDS011;38063;53.210;6.504;2023-07-02T12:53:24;5.07;;;2.25;;
52057;SDS011;38063;53.210;6.504;2023-07-02T12:55:51;7.28;;;2.53;;
52057;SDS011;38063;53.210;6.504;2023-07-02T12:58:17;7.72;;;3.15;;
52057;SDS011;38063;53.210;6.504;2023-07-02T13:00:43;9.27;;;2.92;;
52057;SDS011;38063;53.210;6.504;2023-07-02T13:03:10;7.32;;;2.33;;
52057;SDS011;38063;53.210;6.504;2023-07-02T13:05:37;10.68;;;2.75;;
52057;SDS011;38063;53.210;6.504;2023-07-02T13:08:03;9.60;;;3.10;;
52057;SDS011;38063;53.210;6.504;2023-07-02T13:10:29;8.05;;;2.67;;
52057;SDS011;38063;53.210;6.504;2023-07-02T13:12:55;13.00;;;3.22;;
52057;SDS011;38063;53.210;6.504;2023-07-02T13:15:21;7.75;;;3.08;;
52057;SDS011;38063;53.210;6.504;2023-07-02T13:17:47;12.65;;;3.28;;
52057;SDS011;38063;53.210;6.504;2023-07-02T13:20:13;11.27;;;3.72;;
52057;SDS011;38063;53.210;6.504;2023-07-02T13:22:39;8.23;;;3.28;;
52057;SDS011;38063;53.210;6.504;2023-07-02T13:25:05;14.60;;;3.67;;
52057;SDS011;38063;53.210;6.504;2023-07-02T13:27:31;7.75;;;3.47;;
52057;SDS011;38063;53.210;6.504;2023-07-02T13:29:57;11.38;;;4.20;;
52057;SDS011;38063;53.210;6.504;2023-07-02T13:32:23;12.68;;;3.50;;
52057;SDS011;38063;53.210;6.504;2023-07-02T13:34:49;9.38;;;3.08;;
52057;SDS011;38063;53.210;6.504;2023-07-02T13:37:15;7.97;;;2.95;;
52057;SDS011;38063;53.210;6.504;2023-07-02T13:39:43;7.68;;;3.08;;
52057;SDS011;38063;53.210;6.504;2023-07-02T13:42:10;7.97;;;3.22;;
52057;SDS011;38063;53.210;6.504;2023-07-02T13:44:35;16.35;;;3.50;;
52057;SDS011;38063;53.210;6.504;2023-07-02T13:47:01;9.13;;;3.45;;
52057;SDS011;38063;53.210;6.504;2023-07-02T13:49:27;11.90;;;4.05;;
52057;SDS011;38063;53.210;6.504;2023-07-02T13:51:52;14.50;;;3.85;;
52057;SDS011;38063;53.210;6.504;2023-07-02T13:54:18;8.75;;;3.10;;
52057;SDS011;38063;53.210;6.504;2023-07-02T13:56:44;12.05;;;3.53;;
52057;SDS011;38063;53.210;6.504;2023-07-02T13:59:11;8.38;;;3.50;;
52057;SDS011;38063;53.210;6.504;2023-07-02T14:01:36;15.57;;;3.88;;
52057;SDS011;38063;53.210;6.504;2023-07-02T14:04:02;10.88;;;3.80;;
52057;SDS011;38063;53.210;6.504;2023-07-02T14:06:29;10.95;;;3.72;;
52057;SDS011;38063;53.210;6.504;2023-07-02T14:08:55;11.45;;;3.20;;
52057;SDS011;38063;53.210;6.504;2023-07-02T14:11:22;9.00;;;3.60;;
52057;SDS011;38063;53.210;6.504;2023-07-02T14:13:49;11.18;;;4.10;;
52057;SDS011;38063;53.210;6.504;2023-07-02T14:16:15;9.93;;;3.50;;
52057;SDS011;38063;53.210;6.504;2023-07-02T14:18:41;11.00;;;3.78;;
52057;SDS011;38063;53.210;6.504;2023-07-02T14:21:06;11.60;;;3.65;;
52057;SDS011;38063;53.210;6.504;2023-07-02T14:23:32;12.18;;;3.75;;
52057;SDS011;38063;53.210;6.504;2023-07-02T14:25:58;11.25;;;3.80;;
52057;SDS011;38063;53.210;6.504;2023-07-02T14:28:24;9.60;;;3.60;;
52057;SDS011;38063;53.210;6.504;2023-07-02T14:31:00;10.98;;;3.90;;
52057;SDS011;38063;53.210;6.504;2023-07-02T14:33:28;13.35;;;4.45;;
52057;SDS011;38063;53.210;6.504;2023-07-02T14:35:56;10.70;;;4.47;;
52057;SDS011;38063;53.210;6.504;2023-07-02T14:38:22;11.52;;;4.22;;